createdAt,value
2022-11-22T00:02:42.851Z,7.13
2022-11-22T00:06:44.982Z,5.93
2022-11-22T00:10:49.767Z,5.90
2022-11-22T00:14:56.543Z,7.03
2022-11-22T00:18:58.616Z,7.17
2022-11-22T00:23:00.464Z,7.80
2022-11-22T00:27:02.244Z,6.67
2022-11-22T00:31:03.951Z,6.67
2022-11-22T00:35:06.110Z,6.73
2022-11-22T00:39:07.827Z,7.40
2022-11-22T00:43:09.536Z,6.73
2022-11-22T00:47:11.548Z,6.83
2022-11-22T00:51:13.292Z,7.10
2022-11-22T00:55:15.061Z,7.20
2022-11-22T00:59:16.850Z,6.93
2022-11-22T01:03:18.577Z,7.20
2022-11-22T01:07:20.373Z,6.67
2022-11-22T01:11:22.211Z,6.80
2022-11-22T01:15:24.882Z,6.47
2022-11-22T01:19:26.963Z,6.40
2022-11-22T01:23:29.003Z,5.83
2022-11-22T01:27:31.139Z,6.20
2022-11-22T01:31:35.410Z,5.83
2022-11-22T01:35:37.469Z,6.10
2022-11-22T01:39:39.725Z,6.10
2022-11-22T01:43:41.607Z,6.03
2022-11-22T01:47:43.394Z,6.60
2022-11-22T01:51:48.027Z,6.40
2022-11-22T01:55:51.851Z,6.63
2022-11-22T02:00:02.562Z,6.10
2022-11-22T02:04:09.911Z,6.07
2022-11-22T02:08:50.795Z,6.63
2022-11-22T02:12:55.020Z,7.10
2022-11-22T02:16:57.084Z,7.37
2022-11-22T02:20:59.527Z,7.40
2022-11-22T02:25:22.342Z,7.80
2022-11-22T02:29:25.044Z,7.80
2022-11-22T02:33:28.386Z,8.43
2022-11-22T02:37:33.030Z,8.17
2022-11-22T02:41:35.434Z,7.83
2022-11-22T02:45:39.394Z,7.63
2022-11-22T02:49:42.512Z,7.53
2022-11-22T02:53:46.163Z,8.33
2022-11-22T02:57:47.976Z,7.60
2022-11-22T03:01:51.201Z,7.83
2022-11-22T03:05:52.881Z,7.63
2022-11-22T03:09:54.551Z,8.37
2022-11-22T03:13:56.282Z,7.83
2022-11-22T03:18:02.513Z,7.27
2022-11-22T03:22:04.299Z,6.70
2022-11-22T03:26:10.915Z,7.33
2022-11-22T03:30:13.639Z,6.90
2022-11-22T03:34:26.483Z,7.70
2022-11-22T03:38:28.288Z,6.97
2022-11-22T03:42:30.042Z,7.13
2022-11-22T03:46:32.001Z,7.27
2022-11-22T03:50:33.702Z,7.23
2022-11-22T03:54:36.069Z,7.23
2022-11-22T03:58:37.827Z,6.90
2022-11-22T04:02:39.577Z,6.43
2022-11-22T04:06:41.375Z,6.83
2022-11-22T04:10:43.120Z,6.20
2022-11-22T04:15:03.391Z,6.87
2022-11-22T04:19:05.176Z,6.37
2022-11-22T04:23:21.178Z,6.63
2022-11-22T04:27:22.873Z,7.10
2022-11-22T04:31:43.097Z,7.70
2022-11-22T04:35:45.395Z,6.70
2022-11-22T04:39:47.099Z,7.03
2022-11-22T04:44:07.548Z,7.97
2022-11-22T04:48:10.614Z,9.07
2022-11-22T04:52:30.916Z,7.33
2022-11-22T04:56:32.805Z,7.30
2022-11-22T05:00:34.931Z,18.10
2022-11-22T05:04:37.478Z,15.07
2022-11-22T05:08:39.440Z,17.13
2022-11-22T05:12:42.591Z,19.10
2022-11-22T05:16:44.358Z,17.07
2022-11-22T05:20:46.902Z,12.13
2022-11-22T05:24:48.572Z,9.70
2022-11-22T05:28:51.056Z,9.97
2022-11-22T05:32:56.181Z,11.53
2022-11-22T05:36:57.928Z,10.27
2022-11-22T05:41:00.096Z,9.47
2022-11-22T05:45:03.459Z,10.03
2022-11-22T05:49:07.225Z,9.77
2022-11-22T05:53:08.904Z,8.70
2022-11-22T05:57:10.678Z,8.77
2022-11-22T06:01:18.457Z,8.23
2022-11-22T06:05:20.151Z,8.03
2022-11-22T06:09:22.867Z,8.07
2022-11-22T06:13:24.629Z,7.93
2022-11-22T06:17:26.383Z,8.77
2022-11-22T06:21:28.749Z,9.13
2022-11-22T06:25:30.582Z,9.77
2022-11-22T06:29:32.673Z,10.63
2022-11-22T06:33:35.520Z,9.63
2022-11-22T06:37:37.318Z,11.67
2022-11-22T06:41:39.560Z,11.77
2022-11-22T06:45:41.439Z,10.03
2022-11-22T06:49:44.398Z,8.73
2022-11-22T06:53:48.759Z,9.10
2022-11-22T06:57:54.154Z,9.93
2022-11-22T07:01:58.075Z,12.13
2022-11-22T07:06:04.044Z,9.70
2022-11-22T07:10:06.297Z,8.67
2022-11-22T07:14:09.277Z,9.17
2022-11-22T07:18:11.379Z,8.57
2022-11-22T07:22:13.200Z,8.03
2022-11-22T07:26:16.362Z,8.47
2022-11-22T07:30:18.268Z,10.03
2022-11-22T07:34:19.993Z,8.77
2022-11-22T07:38:22.026Z,11.23
2022-11-22T07:42:26.277Z,8.90
2022-11-22T07:46:31.364Z,11.37
2022-11-22T07:50:34.765Z,9.03
2022-11-22T07:54:36.489Z,9.53
2022-11-22T07:58:38.392Z,9.60
2022-11-22T08:02:44.087Z,9.33
2022-11-22T08:06:45.827Z,9.43
2022-11-22T08:10:47.539Z,7.77
2022-11-22T08:14:49.234Z,7.47
2022-11-22T08:18:51.061Z,7.80
2022-11-22T08:22:52.728Z,7.93
2022-11-22T08:26:54.440Z,7.50
2022-11-22T08:31:05.679Z,8.23
2022-11-22T08:35:07.853Z,6.90
2022-11-22T08:39:09.792Z,6.90
2022-11-22T08:43:11.592Z,7.07
2022-11-22T08:47:16.465Z,7.60
2022-11-22T08:51:18.277Z,9.10
2022-11-22T08:55:20.116Z,8.20
2022-11-22T08:59:21.826Z,8.50
2022-11-22T09:03:23.588Z,8.30
2022-11-22T09:11:47.041Z,7.83
2022-11-22T09:15:48.705Z,9.73
2022-11-22T09:19:50.447Z,11.07
2022-11-22T09:23:54.537Z,11.20
2022-11-22T09:28:00.156Z,10.00
2022-11-22T09:32:03.389Z,9.70
2022-11-22T09:36:07.249Z,8.93
2022-11-22T09:40:09.822Z,9.10
2022-11-22T09:44:26.506Z,7.63
2022-11-22T09:48:49.058Z,7.40
2022-11-22T09:53:22.360Z,7.60
2022-11-22T09:57:37.760Z,7.80
2022-11-22T10:01:48.220Z,8.33
2022-11-22T10:05:53.113Z,8.60
2022-11-22T10:15:46.097Z,7.87
2022-11-22T10:20:01.769Z,6.57
2022-11-22T10:24:04.289Z,6.03
2022-11-22T10:28:31.997Z,5.50
2022-11-22T10:32:37.322Z,6.27
2022-11-22T10:37:00.354Z,6.60
2022-11-22T10:41:57.750Z,6.63
2022-11-22T10:46:07.611Z,5.73
2022-11-22T10:50:32.175Z,6.13
2022-11-22T10:54:46.007Z,4.87
2022-11-22T10:59:16.479Z,4.43
2022-11-22T11:04:01.825Z,19.97
2022-11-22T11:18:12.622Z,9.80
2022-11-22T11:22:42.742Z,5.20
2022-11-22T11:26:51.969Z,7.33
2022-11-22T11:31:11.567Z,11.83
2022-11-22T11:35:14.266Z,4.77
2022-11-22T11:39:21.501Z,6.50
2022-11-22T11:43:24.728Z,6.43
2022-11-22T11:47:34.864Z,5.47
2022-11-22T11:52:01.958Z,6.03
2022-11-22T11:56:31.352Z,4.10
2022-11-22T12:00:39.939Z,3.93
2022-11-22T12:05:05.543Z,4.77
2022-11-22T12:09:29.992Z,5.73
2022-11-22T12:14:04.700Z,5.70
2022-11-22T12:18:43.156Z,4.07
2022-11-22T12:23:20.759Z,4.07
2022-11-22T12:27:22.640Z,3.60
2022-11-22T12:31:46.100Z,3.07
2022-11-22T12:35:49.793Z,3.90
2022-11-22T12:39:56.165Z,4.37
2022-11-22T12:44:04.608Z,4.23
2022-11-22T12:48:22.076Z,4.20
2022-11-22T12:52:26.644Z,3.73
2022-11-22T13:02:18.578Z,3.93
2022-11-22T13:06:25.219Z,5.00
2022-11-22T13:10:48.459Z,2.97
2022-11-22T13:14:55.491Z,2.90
2022-11-22T13:19:02.699Z,3.37
2022-11-22T13:23:33.376Z,3.30
2022-11-22T13:27:45.040Z,2.60
2022-11-22T13:32:05.371Z,2.57
2022-11-22T13:36:31.348Z,3.20
2022-11-22T13:40:35.133Z,2.70
2022-11-22T13:44:48.849Z,1.97
2022-11-22T13:48:54.554Z,2.90
2022-11-22T13:52:56.316Z,2.30
2022-11-22T13:57:04.884Z,2.73
2022-11-22T14:01:29.490Z,3.20
2022-11-22T14:05:42.242Z,2.40
2022-11-22T14:09:55.162Z,2.27
2022-11-22T14:14:05.585Z,2.80
2022-11-22T14:18:38.634Z,6.93
2022-11-22T14:22:58.136Z,4.03
2022-11-22T14:27:06.802Z,3.77
2022-11-22T14:31:27.191Z,2.80
2022-11-22T14:35:35.651Z,2.80
2022-11-22T14:39:53.593Z,2.27
2022-11-22T14:44:01.929Z,2.20
2022-11-22T14:48:13.924Z,2.70
2022-11-22T14:52:23.067Z,2.20
2022-11-22T14:56:35.857Z,3.00
2022-11-22T15:00:55.244Z,2.50
2022-11-22T15:09:20.794Z,3.30
2022-11-22T15:10:22.625Z,3.77
2022-11-22T15:14:57.739Z,2.60
2022-11-22T15:59:20.756Z,3.47
2022-11-22T16:03:31.104Z,3.53
2022-11-22T16:07:39.387Z,3.77
2022-11-22T16:11:41.309Z,5.47
2022-11-22T16:15:43.007Z,6.93
2022-11-22T16:19:44.850Z,6.70
2022-11-22T16:23:48.187Z,8.97
2022-11-22T16:27:50.808Z,9.43
2022-11-22T16:32:13.600Z,11.23
2022-11-22T16:36:17.124Z,16.33
2022-11-22T16:40:18.832Z,17.80
2022-11-22T16:44:21.638Z,16.73
2022-11-22T16:48:31.716Z,15.50
2022-11-22T16:52:34.284Z,15.80
2022-11-22T16:56:36.522Z,16.33
2022-11-22T17:00:38.422Z,14.20
2022-11-22T17:04:41.378Z,12.53
2022-11-22T17:08:43.213Z,10.33
2022-11-22T17:12:44.910Z,6.87
2022-11-22T17:16:46.843Z,12.40
2022-11-22T17:20:48.879Z,8.20
2022-11-22T17:24:50.686Z,9.07
2022-11-22T17:28:52.762Z,8.27
2022-11-22T17:32:54.446Z,9.67
2022-11-22T17:36:56.139Z,9.17
2022-11-22T17:41:01.401Z,15.23
2022-11-22T17:45:03.377Z,14.57
2022-11-22T17:49:05.649Z,34.03
2022-11-22T17:53:07.518Z,34.17
2022-11-22T17:57:09.175Z,25.37
2022-11-22T18:01:12.353Z,33.53
2022-11-22T18:05:14.136Z,31.77
2022-11-22T18:09:15.798Z,25.77
2022-11-22T18:13:21.817Z,11.90
2022-11-22T18:17:23.989Z,19.10
2022-11-22T18:21:30.577Z,16.70
2022-11-22T18:25:32.355Z,14.30
2022-11-22T18:29:42.853Z,13.20
2022-11-22T18:33:44.913Z,11.03
2022-11-22T18:37:46.639Z,18.30
2022-11-22T18:41:49.000Z,13.30
2022-11-22T18:45:50.817Z,16.73
2022-11-22T18:49:52.576Z,8.27
2022-11-22T18:53:55.093Z,7.97
2022-11-22T18:57:56.984Z,7.17
2022-11-22T19:01:58.813Z,12.67
2022-11-22T19:06:04.094Z,18.90
2022-11-22T19:10:06.801Z,19.30
2022-11-22T19:14:08.716Z,17.77
2022-11-22T19:18:10.509Z,17.53
2022-11-22T19:22:12.277Z,19.10
2022-11-22T19:26:20.663Z,17.67
2022-11-22T19:30:23.988Z,16.43
2022-11-22T19:34:25.707Z,16.30
2022-11-22T19:38:28.210Z,15.23
2022-11-22T19:42:33.545Z,12.90
2022-11-22T19:46:36.306Z,14.10
2022-11-22T19:50:39.140Z,15.57
2022-11-22T19:54:40.972Z,12.23
2022-11-22T19:58:44.247Z,11.60
2022-11-22T20:02:46.015Z,12.40
2022-11-22T20:06:50.318Z,11.63
2022-11-22T20:10:52.224Z,34.43
2022-11-22T20:14:53.891Z,13.87
2022-11-22T20:18:57.493Z,13.23
2022-11-22T20:22:59.222Z,9.03
2022-11-22T20:27:02.434Z,9.93
2022-11-22T20:31:13.028Z,9.77
2022-11-22T20:35:15.403Z,14.60
2022-11-22T20:39:17.204Z,12.90
2022-11-22T20:43:19.218Z,12.70
2022-11-22T20:47:21.015Z,12.97
2022-11-22T20:51:25.260Z,12.30
2022-11-22T20:55:27.087Z,14.37
2022-11-22T20:59:28.839Z,12.87
2022-11-22T21:03:30.547Z,13.13
2022-11-22T21:07:32.349Z,13.33
2022-11-22T21:11:35.093Z,8.17
2022-11-22T21:15:37.461Z,6.13
2022-11-22T21:19:39.938Z,4.30
2022-11-22T21:23:43.859Z,4.40
2022-11-22T21:27:47.603Z,4.70
2022-11-22T21:31:49.604Z,5.97
2022-11-22T21:35:52.644Z,9.90
2022-11-22T21:39:54.354Z,16.83
2022-11-22T21:43:56.834Z,16.73
2022-11-22T21:47:58.603Z,15.43
2022-11-22T21:52:00.279Z,12.77
2022-11-22T21:56:03.533Z,12.23
2022-11-22T22:00:06.209Z,14.70
2022-11-22T22:04:07.962Z,13.93
2022-11-22T22:08:09.945Z,10.50
2022-11-22T22:12:11.679Z,11.90
2022-11-22T22:16:18.760Z,8.03
2022-11-22T22:20:21.909Z,7.90
2022-11-22T22:24:23.664Z,7.07
2022-11-22T22:28:27.974Z,7.10
2022-11-22T22:32:29.726Z,8.03
2022-11-22T22:36:31.496Z,7.77
2022-11-22T22:40:33.183Z,8.20
2022-11-22T22:44:35.047Z,6.87
2022-11-22T22:48:37.001Z,6.90
2022-11-22T22:52:40.495Z,6.10
2022-11-22T22:56:43.501Z,5.67
2022-11-22T23:00:45.339Z,7.37
2022-11-22T23:04:47.031Z,6.40
2022-11-22T23:08:50.589Z,4.30
2022-11-22T23:12:58.852Z,3.67
2022-11-22T23:17:00.726Z,2.87
2022-11-22T23:21:03.957Z,3.13
2022-11-22T23:25:07.038Z,3.23
2022-11-22T23:29:08.761Z,3.43
2022-11-22T23:33:10.467Z,3.90
2022-11-22T23:37:12.147Z,3.90
2022-11-22T23:41:15.781Z,4.57
2022-11-22T23:45:17.531Z,3.60
2022-11-22T23:49:19.255Z,3.60
2022-11-22T23:53:21.196Z,3.50
2022-11-22T23:57:22.956Z,4.27
